sensor_id;sensor_type;location;lat;lon;timestamp;P1;durP1;ratioP1;P2;durP2;ratioP2
13693;SDS011;6919;52.344;14.518;2022-10-26T00:01:19;0.50;;;0.50;;
13693;SDS011;6919;52.344;14.518;2022-10-26T00:03:48;0.60;;;0.60;;
13693;SDS011;6919;52.344;14.518;2022-10-26T00:06:19;0.40;;;0.40;;
13693;SDS011;6919;52.344;14.518;2022-10-26T00:08:50;0.63;;;0.63;;
13693;SDS011;6919;52.344;14.518;2022-10-26T00:11:20;0.63;;;0.63;;
13693;SDS011;6919;52.344;14.518;2022-10-26T00:13:48;0.67;;;0.67;;
13693;SDS011;6919;52.344;14.518;2022-10-26T00:16:19;0.60;;;0.60;;
13693;SDS011;6919;52.344;14.518;2022-10-26T00:18:50;0.60;;;0.60;;
13693;SDS011;6919;52.344;14.518;2022-10-26T00:21:20;0.70;;;0.70;;
13693;SDS011;6919;52.344;14.518;2022-10-26T00:23:49;0.60;;;0.60;;
13693;SDS011;6919;52.344;14.518;2022-10-26T00:26:17;0.53;;;0.53;;
13693;SDS011;6919;52.344;14.518;2022-10-26T00:28:45;0.80;;;0.70;;
13693;SDS011;6919;52.344;14.518;2022-10-26T00:31:14;0.93;;;0.50;;
13693;SDS011;6919;52.344;14.518;2022-10-26T00:33:44;0.67;;;0.67;;
13693;SDS011;6919;52.344;14.518;2022-10-26T00:36:13;0.63;;;0.63;;
13693;SDS011;6919;52.344;14.518;2022-10-26T00:38:46;0.70;;;0.70;;
13693;SDS011;6919;52.344;14.518;2022-10-26T00:41:16;0.60;;;0.60;;
13693;SDS011;6919;52.344;14.518;2022-10-26T00:43:47;0.53;;;0.53;;
13693;SDS011;6919;52.344;14.518;2022-10-26T00:46:17;0.53;;;0.53;;
13693;SDS011;6919;52.344;14.518;2022-10-26T00:48:52;0.40;;;0.40;;
13693;SDS011;6919;52.344;14.518;2022-10-26T00:51:26;0.60;;;0.60;;
13693;SDS011;6919;52.344;14.518;2022-10-26T00:54:01;1.37;;;0.67;;
13693;SDS011;6919;52.344;14.518;2022-10-26T00:56:32;0.57;;;0.57;;
13693;SDS011;6919;52.344;14.518;2022-10-26T00:59:02;0.70;;;0.70;;
13693;SDS011;6919;52.344;14.518;2022-10-26T01:01:36;0.83;;;0.80;;
13693;SDS011;6919;52.344;14.518;2022-10-26T01:04:09;0.47;;;0.47;;
13693;SDS011;6919;52.344;14.518;2022-10-26T01:06:40;0.63;;;0.63;;
13693;SDS011;6919;52.344;14.518;2022-10-26T01:09:10;0.40;;;0.40;;
13693;SDS011;6919;52.344;14.518;2022-10-26T01:11:39;0.50;;;0.50;;
13693;SDS011;6919;52.344;14.518;2022-10-26T01:14:08;0.50;;;0.50;;
13693;SDS011;6919;52.344;14.518;2022-10-26T01:16:45;0.50;;;0.50;;
13693;SDS011;6919;52.344;14.518;2022-10-26T01:19:36;0.70;;;0.60;;
13693;SDS011;6919;52.344;14.518;2022-10-26T01:22:46;0.77;;;0.70;;
13693;SDS011;6919;52.344;14.518;2022-10-26T01:25:29;0.63;;;0.63;;
13693;SDS011;6919;52.344;14.518;2022-10-26T01:28:19;0.30;;;0.30;;
13693;SDS011;6919;52.344;14.518;2022-10-26T01:31:09;0.40;;;0.40;;
13693;SDS011;6919;52.344;14.518;2022-10-26T01:33:47;0.70;;;0.70;;
13693;SDS011;6919;52.344;14.518;2022-10-26T01:36:24;0.80;;;0.80;;
13693;SDS011;6919;52.344;14.518;2022-10-26T01:39:01;0.50;;;0.50;;
13693;SDS011;6919;52.344;14.518;2022-10-26T01:41:42;0.60;;;0.60;;
13693;SDS011;6919;52.344;14.518;2022-10-26T01:44:15;0.80;;;0.80;;
13693;SDS011;6919;52.344;14.518;2022-10-26T01:46:51;0.60;;;0.60;;
13693;SDS011;6919;52.344;14.518;2022-10-26T01:49:25;0.60;;;0.60;;
13693;SDS011;6919;52.344;14.518;2022-10-26T01:51:57;0.77;;;0.77;;
13693;SDS011;6919;52.344;14.518;2022-10-26T01:54:25;0.73;;;0.73;;
13693;SDS011;6919;52.344;14.518;2022-10-26T01:56:54;0.73;;;0.73;;
13693;SDS011;6919;52.344;14.518;2022-10-26T01:59:34;0.87;;;0.87;;
13693;SDS011;6919;52.344;14.518;2022-10-26T02:02:26;0.53;;;0.53;;
13693;SDS011;6919;52.344;14.518;2022-10-26T02:05:39;1.30;;;1.20;;
13693;SDS011;6919;52.344;14.518;2022-10-26T02:08:25;0.40;;;0.40;;
13693;SDS011;6919;52.344;14.518;2022-10-26T02:11:16;0.50;;;0.50;;
13693;SDS011;6919;52.344;14.518;2022-10-26T02:13:59;0.60;;;0.60;;
13693;SDS011;6919;52.344;14.518;2022-10-26T02:16:42;0.70;;;0.70;;
13693;SDS011;6919;52.344;14.518;2022-10-26T02:19:26;0.60;;;0.60;;
13693;SDS011;6919;52.344;14.518;2022-10-26T02:22:05;0.93;;;0.83;;
13693;SDS011;6919;52.344;14.518;2022-10-26T02:24:42;0.77;;;0.77;;
13693;SDS011;6919;52.344;14.518;2022-10-26T02:27:15;0.80;;;0.80;;
13693;SDS011;6919;52.344;14.518;2022-10-26T02:29:49;0.70;;;0.70;;
13693;SDS011;6919;52.344;14.518;2022-10-26T02:32:19;0.50;;;0.50;;
13693;SDS011;6919;52.344;14.518;2022-10-26T02:34:53;2.00;;;0.60;;
13693;SDS011;6919;52.344;14.518;2022-10-26T02:37:25;0.70;;;0.70;;
13693;SDS011;6919;52.344;14.518;2022-10-26T02:39:56;0.67;;;0.67;;
13693;SDS011;6919;52.344;14.518;2022-10-26T02:42:28;0.63;;;0.60;;
13693;SDS011;6919;52.344;14.518;2022-10-26T02:44:59;0.63;;;0.63;;
13693;SDS011;6919;52.344;14.518;2022-10-26T02:47:34;0.60;;;0.60;;
13693;SDS011;6919;52.344;14.518;2022-10-26T02:50:04;1.83;;;0.70;;
13693;SDS011;6919;52.344;14.518;2022-10-26T02:52:34;0.63;;;0.63;;
13693;SDS011;6919;52.344;14.518;2022-10-26T02:55:15;0.70;;;0.70;;
13693;SDS011;6919;52.344;14.518;2022-10-26T02:57:49;0.93;;;0.83;;
13693;SDS011;6919;52.344;14.518;2022-10-26T03:00:24;0.50;;;0.50;;
13693;SDS011;6919;52.344;14.518;2022-10-26T03:02:53;0.50;;;0.50;;
13693;SDS011;6919;52.344;14.518;2022-10-26T03:05:26;0.60;;;0.60;;
13693;SDS011;6919;52.344;14.518;2022-10-26T03:07:57;0.50;;;0.50;;
13693;SDS011;6919;52.344;14.518;2022-10-26T03:10:27;0.60;;;0.50;;
13693;SDS011;6919;52.344;14.518;2022-10-26T03:12:55;0.50;;;0.50;;
13693;SDS011;6919;52.344;14.518;2022-10-26T03:15:23;0.43;;;0.43;;
13693;SDS011;6919;52.344;14.518;2022-10-26T03:17:51;0.80;;;0.80;;
13693;SDS011;6919;52.344;14.518;2022-10-26T03:20:19;0.70;;;0.70;;
13693;SDS011;6919;52.344;14.518;2022-10-26T03:22:49;0.47;;;0.47;;
13693;SDS011;6919;52.344;14.518;2022-10-26T03:25:17;0.47;;;0.47;;
13693;SDS011;6919;52.344;14.518;2022-10-26T03:27:45;0.50;;;0.50;;
13693;SDS011;6919;52.344;14.518;2022-10-26T03:30:13;0.50;;;0.50;;
13693;SDS011;6919;52.344;14.518;2022-10-26T03:32:41;0.60;;;0.60;;
13693;SDS011;6919;52.344;14.518;2022-10-26T03:35:09;0.60;;;0.60;;
13693;SDS011;6919;52.344;14.518;2022-10-26T03:37:37;0.57;;;0.57;;
13693;SDS011;6919;52.344;14.518;2022-10-26T03:40:08;0.40;;;0.40;;
13693;SDS011;6919;52.344;14.518;2022-10-26T03:42:37;0.70;;;0.70;;
13693;SDS011;6919;52.344;14.518;2022-10-26T03:45:06;1.10;;;1.00;;
13693;SDS011;6919;52.344;14.518;2022-10-26T03:47:42;0.57;;;0.57;;
13693;SDS011;6919;52.344;14.518;2022-10-26T03:50:11;0.87;;;0.87;;
13693;SDS011;6919;52.344;14.518;2022-10-26T03:52:42;0.60;;;0.60;;
13693;SDS011;6919;52.344;14.518;2022-10-26T03:55:12;0.33;;;0.33;;
13693;SDS011;6919;52.344;14.518;2022-10-26T03:57:41;0.77;;;0.60;;
13693;SDS011;6919;52.344;14.518;2022-10-26T04:00:10;0.50;;;0.50;;
13693;SDS011;6919;52.344;14.518;2022-10-26T04:02:41;0.50;;;0.50;;
13693;SDS011;6919;52.344;14.518;2022-10-26T04:05:12;0.53;;;0.53;;
13693;SDS011;6919;52.344;14.518;2022-10-26T04:07:42;0.30;;;0.30;;
13693;SDS011;6919;52.344;14.518;2022-10-26T04:10:11;0.70;;;0.50;;
13693;SDS011;6919;52.344;14.518;2022-10-26T04:12:39;0.50;;;0.50;;
13693;SDS011;6919;52.344;14.518;2022-10-26T04:15:08;0.73;;;0.57;;
13693;SDS011;6919;52.344;14.518;2022-10-26T04:17:36;0.67;;;0.63;;
13693;SDS011;6919;52.344;14.518;2022-10-26T04:20:05;0.60;;;0.60;;
13693;SDS011;6919;52.344;14.518;2022-10-26T04:22:35;0.70;;;0.70;;
13693;SDS011;6919;52.344;14.518;2022-10-26T04:25:04;0.30;;;0.30;;
13693;SDS011;6919;52.344;14.518;2022-10-26T04:27:35;0.60;;;0.60;;
13693;SDS011;6919;52.344;14.518;2022-10-26T04:30:03;0.73;;;0.73;;
13693;SDS011;6919;52.344;14.518;2022-10-26T04:32:35;0.80;;;0.80;;
13693;SDS011;6919;52.344;14.518;2022-10-26T04:35:03;0.93;;;0.93;;
13693;SDS011;6919;52.344;14.518;2022-10-26T04:37:32;0.57;;;0.57;;
13693;SDS011;6919;52.344;14.518;2022-10-26T04:40:00;1.03;;;0.97;;
13693;SDS011;6919;52.344;14.518;2022-10-26T04:42:28;0.60;;;0.60;;
13693;SDS011;6919;52.344;14.518;2022-10-26T04:45:00;0.70;;;0.70;;
13693;SDS011;6919;52.344;14.518;2022-10-26T04:47:28;0.80;;;0.80;;
13693;SDS011;6919;52.344;14.518;2022-10-26T04:49:56;1.57;;;1.27;;
13693;SDS011;6919;52.344;14.518;2022-10-26T04:52:24;0.70;;;0.70;;
13693;SDS011;6919;52.344;14.518;2022-10-26T04:54:52;1.00;;;0.80;;
13693;SDS011;6919;52.344;14.518;2022-10-26T04:57:20;0.87;;;0.53;;
13693;SDS011;6919;52.344;14.518;2022-10-26T04:59:48;1.20;;;1.10;;
13693;SDS011;6919;52.344;14.518;2022-10-26T05:02:18;1.00;;;0.93;;
13693;SDS011;6919;52.344;14.518;2022-10-26T05:04:47;1.07;;;0.97;;
13693;SDS011;6919;52.344;14.518;2022-10-26T05:07:15;1.17;;;0.60;;
13693;SDS011;6919;52.344;14.518;2022-10-26T05:09:43;0.70;;;0.70;;
13693;SDS011;6919;52.344;14.518;2022-10-26T05:12:11;0.80;;;0.80;;
13693;SDS011;6919;52.344;14.518;2022-10-26T05:14:39;1.40;;;1.17;;
13693;SDS011;6919;52.344;14.518;2022-10-26T05:17:07;0.70;;;0.63;;
13693;SDS011;6919;52.344;14.518;2022-10-26T05:19:36;0.93;;;0.90;;
13693;SDS011;6919;52.344;14.518;2022-10-26T05:22:05;1.67;;;1.40;;
13693;SDS011;6919;52.344;14.518;2022-10-26T05:24:33;0.77;;;0.77;;
13693;SDS011;6919;52.344;14.518;2022-10-26T05:27:01;0.67;;;0.67;;
13693;SDS011;6919;52.344;14.518;2022-10-26T05:29:29;0.83;;;0.83;;
13693;SDS011;6919;52.344;14.518;2022-10-26T05:31:57;0.77;;;0.50;;
13693;SDS011;6919;52.344;14.518;2022-10-26T05:34:25;0.77;;;0.77;;
13693;SDS011;6919;52.344;14.518;2022-10-26T05:36:54;0.50;;;0.50;;
13693;SDS011;6919;52.344;14.518;2022-10-26T05:39:22;0.50;;;0.50;;
13693;SDS011;6919;52.344;14.518;2022-10-26T05:41:50;0.93;;;0.80;;
13693;SDS011;6919;52.344;14.518;2022-10-26T05:44:18;0.47;;;0.47;;
13693;SDS011;6919;52.344;14.518;2022-10-26T05:46:46;0.57;;;0.57;;
13693;SDS011;6919;52.344;14.518;2022-10-26T05:49:19;0.57;;;0.57;;
13693;SDS011;6919;52.344;14.518;2022-10-26T05:51:47;0.50;;;0.50;;
13693;SDS011;6919;52.344;14.518;2022-10-26T05:54:17;0.60;;;0.60;;
13693;SDS011;6919;52.344;14.518;2022-10-26T05:56:45;0.43;;;0.43;;
13693;SDS011;6919;52.344;14.518;2022-10-26T05:59:15;0.43;;;0.43;;
13693;SDS011;6919;52.344;14.518;2022-10-26T06:01:48;0.40;;;0.40;;
13693;SDS011;6919;52.344;14.518;2022-10-26T06:04:32;0.40;;;0.40;;
13693;SDS011;6919;52.344;14.518;2022-10-26T06:07:08;0.70;;;0.70;;
13693;SDS011;6919;52.344;14.518;2022-10-26T06:09:42;0.90;;;0.90;;
13693;SDS011;6919;52.344;14.518;2022-10-26T06:12:11;0.70;;;0.70;;
13693;SDS011;6919;52.344;14.518;2022-10-26T06:14:45;0.83;;;0.83;;
13693;SDS011;6919;52.344;14.518;2022-10-26T06:17:17;1.20;;;1.10;;
13693;SDS011;6919;52.344;14.518;2022-10-26T06:20:16;0.50;;;0.50;;
13693;SDS011;6919;52.344;14.518;2022-10-26T06:23:11;0.70;;;0.60;;
13693;SDS011;6919;52.344;14.518;2022-10-26T06:26:01;0.43;;;0.40;;
13693;SDS011;6919;52.344;14.518;2022-10-26T06:28:44;0.50;;;0.50;;
13693;SDS011;6919;52.344;14.518;2022-10-26T06:31:22;0.60;;;0.60;;
13693;SDS011;6919;52.344;14.518;2022-10-26T06:33:50;0.60;;;0.60;;
13693;SDS011;6919;52.344;14.518;2022-10-26T06:36:25;0.40;;;0.40;;
13693;SDS011;6919;52.344;14.518;2022-10-26T06:38:57;0.80;;;0.80;;
13693;SDS011;6919;52.344;14.518;2022-10-26T06:41:32;0.40;;;0.40;;
13693;SDS011;6919;52.344;14.518;2022-10-26T06:44:03;0.30;;;0.30;;
13693;SDS011;6919;52.344;14.518;2022-10-26T06:46:35;0.57;;;0.57;;
13693;SDS011;6919;52.344;14.518;2022-10-26T06:49:12;0.30;;;0.30;;
13693;SDS011;6919;52.344;14.518;2022-10-26T06:51:48;0.33;;;0.33;;
13693;SDS011;6919;52.344;14.518;2022-10-26T06:54:24;0.30;;;0.30;;
13693;SDS011;6919;52.344;14.518;2022-10-26T06:57:10;0.50;;;0.50;;
13693;SDS011;6919;52.344;14.518;2022-10-26T06:59:42;0.50;;;0.50;;
13693;SDS011;6919;52.344;14.518;2022-10-26T07:02:15;0.47;;;0.47;;
13693;SDS011;6919;52.344;14.518;2022-10-26T07:04:44;0.57;;;0.57;;
13693;SDS011;6919;52.344;14.518;2022-10-26T07:07:13;0.50;;;0.50;;
13693;SDS011;6919;52.344;14.518;2022-10-26T07:09:45;0.30;;;0.30;;
13693;SDS011;6919;52.344;14.518;2022-10-26T07:12:15;0.40;;;0.40;;
13693;SDS011;6919;52.344;14.518;2022-10-26T07:14:43;0.50;;;0.50;;
13693;SDS011;6919;52.344;14.518;2022-10-26T07:17:11;0.30;;;0.30;;
13693;SDS011;6919;52.344;14.518;2022-10-26T07:19:40;0.60;;;0.60;;
13693;SDS011;6919;52.344;14.518;2022-10-26T07:22:09;0.90;;;0.70;;
13693;SDS011;6919;52.344;14.518;2022-10-26T07:24:38;0.50;;;0.50;;
13693;SDS011;6919;52.344;14.518;2022-10-26T07:27:06;0.73;;;0.70;;
13693;SDS011;6919;52.344;14.518;2022-10-26T07:29:35;0.60;;;0.60;;
13693;SDS011;6919;52.344;14.518;2022-10-26T07:32:04;0.50;;;0.50;;
13693;SDS011;6919;52.344;14.518;2022-10-26T07:34:33;0.60;;;0.60;;
13693;SDS011;6919;52.344;14.518;2022-10-26T07:37:01;0.40;;;0.40;;
13693;SDS011;6919;52.344;14.518;2022-10-26T07:39:29;0.60;;;0.60;;
13693;SDS011;6919;52.344;14.518;2022-10-26T07:41:58;0.70;;;0.70;;
13693;SDS011;6919;52.344;14.518;2022-10-26T07:44:26;1.07;;;0.97;;
13693;SDS011;6919;52.344;14.518;2022-10-26T07:46:55;0.50;;;0.50;;
13693;SDS011;6919;52.344;14.518;2022-10-26T07:49:23;0.80;;;0.80;;
13693;SDS011;6919;52.344;14.518;2022-10-26T07:51:53;2.27;;;0.57;;
13693;SDS011;6919;52.344;14.518;2022-10-26T07:54:21;0.90;;;0.90;;
13693;SDS011;6919;52.344;14.518;2022-10-26T07:56:49;0.77;;;0.77;;
13693;SDS011;6919;52.344;14.518;2022-10-26T07:59:17;0.97;;;0.70;;
13693;SDS011;6919;52.344;14.518;2022-10-26T08:01:45;0.70;;;0.70;;
13693;SDS011;6919;52.344;14.518;2022-10-26T08:04:15;0.90;;;0.70;;
13693;SDS011;6919;52.344;14.518;2022-10-26T08:06:43;0.70;;;0.70;;
13693;SDS011;6919;52.344;14.518;2022-10-26T08:09:12;0.70;;;0.70;;
13693;SDS011;6919;52.344;14.518;2022-10-26T08:11:40;0.53;;;0.53;;
13693;SDS011;6919;52.344;14.518;2022-10-26T08:14:09;0.90;;;0.90;;
13693;SDS011;6919;52.344;14.518;2022-10-26T08:16:37;0.87;;;0.87;;
13693;SDS011;6919;52.344;14.518;2022-10-26T08:19:06;0.93;;;0.93;;
13693;SDS011;6919;52.344;14.518;2022-10-26T08:21:35;0.83;;;0.83;;
13693;SDS011;6919;52.344;14.518;2022-10-26T08:24:06;1.10;;;0.80;;
13693;SDS011;6919;52.344;14.518;2022-10-26T08:26:34;0.77;;;0.77;;
13693;SDS011;6919;52.344;14.518;2022-10-26T08:29:02;0.97;;;0.97;;
13693;SDS011;6919;52.344;14.518;2022-10-26T08:31:31;0.90;;;0.60;;
13693;SDS011;6919;52.344;14.518;2022-10-26T08:33:59;0.90;;;0.83;;
13693;SDS011;6919;52.344;14.518;2022-10-26T08:36:29;0.90;;;0.90;;
13693;SDS011;6919;52.344;14.518;2022-10-26T08:38:58;1.13;;;1.03;;
13693;SDS011;6919;52.344;14.518;2022-10-26T08:41:30;1.03;;;0.97;;
13693;SDS011;6919;52.344;14.518;2022-10-26T08:44:06;1.10;;;1.00;;
13693;SDS011;6919;52.344;14.518;2022-10-26T08:46:50;0.60;;;0.60;;
13693;SDS011;6919;52.344;14.518;2022-10-26T08:49:25;1.57;;;0.90;;
13693;SDS011;6919;52.344;14.518;2022-10-26T08:51:59;1.70;;;1.23;;
13693;SDS011;6919;52.344;14.518;2022-10-26T08:54:36;1.00;;;0.93;;
13693;SDS011;6919;52.344;14.518;2022-10-26T08:57:10;1.17;;;0.97;;
13693;SDS011;6919;52.344;14.518;2022-10-26T08:59:46;1.10;;;1.00;;
13693;SDS011;6919;52.344;14.518;2022-10-26T09:02:24;0.80;;;0.80;;
13693;SDS011;6919;52.344;14.518;2022-10-26T09:04:52;1.30;;;1.17;;
13693;SDS011;6919;52.344;14.518;2022-10-26T09:07:28;1.40;;;1.00;;
13693;SDS011;6919;52.344;14.518;2022-10-26T09:10:15;1.20;;;1.10;;
13693;SDS011;6919;52.344;14.518;2022-10-26T09:13:02;1.03;;;0.93;;
13693;SDS011;6919;52.344;14.518;2022-10-26T09:15:47;1.20;;;0.90;;
13693;SDS011;6919;52.344;14.518;2022-10-26T09:18:32;0.80;;;0.80;;
13693;SDS011;6919;52.344;14.518;2022-10-26T09:21:21;1.20;;;0.87;;
13693;SDS011;6919;52.344;14.518;2022-10-26T09:24:05;1.30;;;1.07;;
13693;SDS011;6919;52.344;14.518;2022-10-26T09:26:47;1.07;;;1.03;;
13693;SDS011;6919;52.344;14.518;2022-10-26T09:29:22;0.83;;;0.83;;
13693;SDS011;6919;52.344;14.518;2022-10-26T09:31:57;1.17;;;1.03;;
13693;SDS011;6919;52.344;14.518;2022-10-26T09:34:30;0.87;;;0.83;;
13693;SDS011;6919;52.344;14.518;2022-10-26T09:37:10;0.63;;;0.63;;
13693;SDS011;6919;52.344;14.518;2022-10-26T09:39:45;0.80;;;0.80;;
13693;SDS011;6919;52.344;14.518;2022-10-26T09:42:25;1.10;;;0.97;;
13693;SDS011;6919;52.344;14.518;2022-10-26T09:45:03;2.40;;;1.47;;
13693;SDS011;6919;52.344;14.518;2022-10-26T09:47:44;1.20;;;1.10;;
13693;SDS011;6919;52.344;14.518;2022-10-26T09:50:19;0.93;;;0.93;;
13693;SDS011;6919;52.344;14.518;2022-10-26T09:52:54;1.07;;;1.00;;
13693;SDS011;6919;52.344;14.518;2022-10-26T09:55:22;1.80;;;1.13;;
13693;SDS011;6919;52.344;14.518;2022-10-26T09:57:52;1.53;;;1.00;;
13693;SDS011;6919;52.344;14.518;2022-10-26T10:00:25;1.70;;;1.03;;
13693;SDS011;6919;52.344;14.518;2022-10-26T10:02:55;1.50;;;1.10;;
13693;SDS011;6919;52.344;14.518;2022-10-26T10:05:28;0.73;;;0.73;;
13693;SDS011;6919;52.344;14.518;2022-10-26T10:08:19;1.10;;;0.97;;
13693;SDS011;6919;52.344;14.518;2022-10-26T10:10:54;1.30;;;1.10;;
13693;SDS011;6919;52.344;14.518;2022-10-26T10:13:27;1.93;;;1.40;;
13693;SDS011;6919;52.344;14.518;2022-10-26T10:16:02;1.20;;;1.10;;
13693;SDS011;6919;52.344;14.518;2022-10-26T10:18:39;1.50;;;1.30;;
13693;SDS011;6919;52.344;14.518;2022-10-26T10:21:08;1.97;;;1.10;;
13693;SDS011;6919;52.344;14.518;2022-10-26T10:23:46;1.30;;;1.20;;
13693;SDS011;6919;52.344;14.518;2022-10-26T10:26:17;1.37;;;1.27;;
13693;SDS011;6919;52.344;14.518;2022-10-26T10:28:56;1.47;;;1.30;;
13693;SDS011;6919;52.344;14.518;2022-10-26T10:31:26;2.43;;;1.40;;
13693;SDS011;6919;52.344;14.518;2022-10-26T10:33:56;1.60;;;1.40;;
13693;SDS011;6919;52.344;14.518;2022-10-26T10:36:26;1.50;;;1.20;;
13693;SDS011;6919;52.344;14.518;2022-10-26T10:38:56;1.70;;;1.50;;
13693;SDS011;6919;52.344;14.518;2022-10-26T10:41:45;1.17;;;1.07;;
13693;SDS011;6919;52.344;14.518;2022-10-26T10:44:16;1.57;;;1.37;;
13693;SDS011;6919;52.344;14.518;2022-10-26T10:46:58;1.40;;;1.30;;
13693;SDS011;6919;52.344;14.518;2022-10-26T10:49:28;1.03;;;1.03;;
13693;SDS011;6919;52.344;14.518;2022-10-26T10:51:58;1.90;;;1.43;;
13693;SDS011;6919;52.344;14.518;2022-10-26T10:54:29;2.03;;;1.27;;
13693;SDS011;6919;52.344;14.518;2022-10-26T10:57:04;1.00;;;0.90;;
13693;SDS011;6919;52.344;14.518;2022-10-26T10:59:48;0.93;;;0.87;;
13693;SDS011;6919;52.344;14.518;2022-10-26T11:05:32;1.17;;;1.07;;
13693;SDS011;6919;52.344;14.518;2022-10-26T11:08:19;1.70;;;0.90;;
13693;SDS011;6919;52.344;14.518;2022-10-26T11:10:56;2.10;;;1.53;;
13693;SDS011;6919;52.344;14.518;2022-10-26T11:13:32;0.90;;;0.87;;
13693;SDS011;6919;52.344;14.518;2022-10-26T11:16:10;1.10;;;1.00;;
13693;SDS011;6919;52.344;14.518;2022-10-26T11:18:44;1.43;;;1.03;;
13693;SDS011;6919;52.344;14.518;2022-10-26T11:21:20;1.23;;;0.90;;
13693;SDS011;6919;52.344;14.518;2022-10-26T11:24:00;0.80;;;0.80;;
13693;SDS011;6919;52.344;14.518;2022-10-26T11:26:41;1.37;;;1.10;;
13693;SDS011;6919;52.344;14.518;2022-10-26T11:29:18;1.83;;;1.20;;
13693;SDS011;6919;52.344;14.518;2022-10-26T11:32:06;1.13;;;0.90;;
13693;SDS011;6919;52.344;14.518;2022-10-26T11:34:43;1.43;;;1.10;;
13693;SDS011;6919;52.344;14.518;2022-10-26T11:37:20;0.90;;;0.90;;
13693;SDS011;6919;52.344;14.518;2022-10-26T11:40:00;1.53;;;1.00;;
13693;SDS011;6919;52.344;14.518;2022-10-26T11:42:40;1.50;;;0.90;;
13693;SDS011;6919;52.344;14.518;2022-10-26T11:45:14;0.80;;;0.77;;
13693;SDS011;6919;52.344;14.518;2022-10-26T11:47:52;1.07;;;0.97;;
13693;SDS011;6919;52.344;14.518;2022-10-26T11:50:31;2.67;;;0.97;;
13693;SDS011;6919;52.344;14.518;2022-10-26T11:53:07;1.10;;;1.00;;
13693;SDS011;6919;52.344;14.518;2022-10-26T11:55:40;0.83;;;0.83;;
13693;SDS011;6919;52.344;14.518;2022-10-26T11:58:12;1.83;;;1.00;;
13693;SDS011;6919;52.344;14.518;2022-10-26T12:00:42;1.10;;;0.87;;
13693;SDS011;6919;52.344;14.518;2022-10-26T12:03:18;1.10;;;0.97;;
13693;SDS011;6919;52.344;14.518;2022-10-26T12:05:52;2.40;;;1.23;;
13693;SDS011;6919;52.344;14.518;2022-10-26T12:08:22;1.50;;;1.30;;
13693;SDS011;6919;52.344;14.518;2022-10-26T12:10:56;1.10;;;0.70;;
13693;SDS011;6919;52.344;14.518;2022-10-26T12:13:34;1.00;;;0.90;;
13693;SDS011;6919;52.344;14.518;2022-10-26T12:16:12;1.20;;;1.00;;
13693;SDS011;6919;52.344;14.518;2022-10-26T12:18:57;1.40;;;1.30;;
13693;SDS011;6919;52.344;14.518;2022-10-26T12:21:32;0.80;;;0.80;;
13693;SDS011;6919;52.344;14.518;2022-10-26T12:24:01;1.30;;;1.10;;
13693;SDS011;6919;52.344;14.518;2022-10-26T12:26:55;1.30;;;1.00;;
13693;SDS011;6919;52.344;14.518;2022-10-26T12:29:31;2.13;;;1.20;;
13693;SDS011;6919;52.344;14.518;2022-10-26T12:35:35;1.47;;;1.00;;
13693;SDS011;6919;52.344;14.518;2022-10-26T12:41:23;1.55;;;1.20;;
13693;SDS011;6919;52.344;14.518;2022-10-26T12:44:01;1.13;;;1.03;;
13693;SDS011;6919;52.344;14.518;2022-10-26T12:47:01;1.00;;;0.90;;
13693;SDS011;6919;52.344;14.518;2022-10-26T12:52:30;0.77;;;0.70;;
13693;SDS011;6919;52.344;14.518;2022-10-26T12:55:28;0.90;;;0.80;;
13693;SDS011;6919;52.344;14.518;2022-10-26T13:05:06;0.47;;;0.47;;
13693;SDS011;6919;52.344;14.518;2022-10-26T13:08:28;0.63;;;0.50;;
13693;SDS011;6919;52.344;14.518;2022-10-26T13:11:12;0.70;;;0.70;;
13693;SDS011;6919;52.344;14.518;2022-10-26T13:13:44;0.30;;;0.30;;
13693;SDS011;6919;52.344;14.518;2022-10-26T13:16:22;0.50;;;0.50;;
13693;SDS011;6919;52.344;14.518;2022-10-26T13:18:53;0.40;;;0.40;;
13693;SDS011;6919;52.344;14.518;2022-10-26T13:21:23;0.60;;;0.60;;
13693;SDS011;6919;52.344;14.518;2022-10-26T13:23:58;0.30;;;0.30;;
13693;SDS011;6919;52.344;14.518;2022-10-26T13:26:30;0.40;;;0.40;;
13693;SDS011;6919;52.344;14.518;2022-10-26T13:29:19;0.77;;;0.57;;
13693;SDS011;6919;52.344;14.518;2022-10-26T13:31:56;1.10;;;0.50;;
13693;SDS011;6919;52.344;14.518;2022-10-26T13:34:26;1.55;;;0.60;;
13693;SDS011;6919;52.344;14.518;2022-10-26T13:37:06;0.65;;;0.60;;
13693;SDS011;6919;52.344;14.518;2022-10-26T13:39:48;0.50;;;0.45;;
13693;SDS011;6919;52.344;14.518;2022-10-26T13:42:23;0.93;;;0.52;;
13693;SDS011;6919;52.344;14.518;2022-10-26T13:44:57;0.90;;;0.70;;
13693;SDS011;6919;52.344;14.518;2022-10-26T13:47:33;0.57;;;0.57;;
13693;SDS011;6919;52.344;14.518;2022-10-26T13:50:10;1.05;;;0.65;;
13693;SDS011;6919;52.344;14.518;2022-10-26T13:53:00;1.00;;;0.70;;
13693;SDS011;6919;52.344;14.518;2022-10-26T13:55:42;1.40;;;1.00;;
13693;SDS011;6919;52.344;14.518;2022-10-26T13:58:17;1.67;;;0.68;;
13693;SDS011;6919;52.344;14.518;2022-10-26T14:00:59;0.93;;;0.73;;
13693;SDS011;6919;52.344;14.518;2022-10-26T14:03:40;1.33;;;0.70;;
13693;SDS011;6919;52.344;14.518;2022-10-26T14:06:12;0.88;;;0.75;;
13693;SDS011;6919;52.344;14.518;2022-10-26T14:08:47;0.63;;;0.52;;
13693;SDS011;6919;52.344;14.518;2022-10-26T14:11:20;0.82;;;0.77;;
13693;SDS011;6919;52.344;14.518;2022-10-26T14:13:58;1.45;;;0.88;;
13693;SDS011;6919;52.344;14.518;2022-10-26T14:16:30;0.73;;;0.73;;
13693;SDS011;6919;52.344;14.518;2022-10-26T14:19:00;1.13;;;0.75;;
13693;SDS011;6919;52.344;14.518;2022-10-26T14:21:29;0.52;;;0.52;;
13693;SDS011;6919;52.344;14.518;2022-10-26T14:23:58;1.02;;;0.65;;
13693;SDS011;6919;52.344;14.518;2022-10-26T14:26:37;1.48;;;0.50;;
13693;SDS011;6919;52.344;14.518;2022-10-26T14:29:12;1.13;;;0.82;;
13693;SDS011;6919;52.344;14.518;2022-10-26T14:31:44;1.02;;;0.82;;
13693;SDS011;6919;52.344;14.518;2022-10-26T14:34:14;0.52;;;0.50;;
13693;SDS011;6919;52.344;14.518;2022-10-26T14:36:44;0.50;;;0.50;;
13693;SDS011;6919;52.344;14.518;2022-10-26T14:39:18;0.50;;;0.50;;
13693;SDS011;6919;52.344;14.518;2022-10-26T14:41:57;0.70;;;0.70;;
13693;SDS011;6919;52.344;14.518;2022-10-26T14:44:29;0.40;;;0.40;;
13693;SDS011;6919;52.344;14.518;2022-10-26T14:46:57;0.57;;;0.50;;
13693;SDS011;6919;52.344;14.518;2022-10-26T14:49:26;0.50;;;0.50;;
13693;SDS011;6919;52.344;14.518;2022-10-26T14:51:55;0.33;;;0.33;;
13693;SDS011;6919;52.344;14.518;2022-10-26T14:54:26;0.37;;;0.37;;
13693;SDS011;6919;52.344;14.518;2022-10-26T14:56:58;0.37;;;0.37;;
13693;SDS011;6919;52.344;14.518;2022-10-26T14:59:33;1.13;;;0.60;;
13693;SDS011;6919;52.344;14.518;2022-10-26T15:02:03;0.40;;;0.40;;
13693;SDS011;6919;52.344;14.518;2022-10-26T15:04:55;0.37;;;0.37;;
13693;SDS011;6919;52.344;14.518;2022-10-26T15:07:33;0.43;;;0.43;;
13693;SDS011;6919;52.344;14.518;2022-10-26T15:10:03;0.57;;;0.40;;
13693;SDS011;6919;52.344;14.518;2022-10-26T15:12:34;2.77;;;0.60;;
13693;SDS011;6919;52.344;14.518;2022-10-26T15:15:09;0.50;;;0.50;;
13693;SDS011;6919;52.344;14.518;2022-10-26T15:17:52;0.30;;;0.30;;
13693;SDS011;6919;52.344;14.518;2022-10-26T15:20:25;0.30;;;0.30;;
13693;SDS011;6919;52.344;14.518;2022-10-26T15:22:56;0.30;;;0.30;;
13693;SDS011;6919;52.344;14.518;2022-10-26T15:25:27;0.47;;;0.47;;
13693;SDS011;6919;52.344;14.518;2022-10-26T15:28:08;0.63;;;0.37;;
13693;SDS011;6919;52.344;14.518;2022-10-26T15:30:56;0.57;;;0.50;;
13693;SDS011;6919;52.344;14.518;2022-10-26T15:33:30;0.67;;;0.60;;
13693;SDS011;6919;52.344;14.518;2022-10-26T15:36:10;0.53;;;0.53;;
13693;SDS011;6919;52.344;14.518;2022-10-26T15:38:41;0.33;;;0.33;;
13693;SDS011;6919;52.344;14.518;2022-10-26T15:41:12;0.40;;;0.40;;
13693;SDS011;6919;52.344;14.518;2022-10-26T15:43:47;0.87;;;0.70;;
13693;SDS011;6919;52.344;14.518;2022-10-26T15:46:17;0.50;;;0.50;;
13693;SDS011;6919;52.344;14.518;2022-10-26T15:48:46;1.50;;;0.60;;